Time;durP1;ratioP1;P1;durP2;ratioP2;P2;SDS_P1;SDS_P2;PMS_P1;PMS_P2;Temp;Humidity;BMP_temperature;BMP_pressure;BME280_temperature;BME280_humidity;BME280_pressure;Samples;Min_cycle;Max_cycle;Signal;HPM_P1;HPM_P2
2023/04/23 00:01:48;;;;;;;;;;;;;;;18.62;100.00;97267.41;5022617;28;19971;-84
2023/04/23 00:04:16;;;;;;;;;;;;;;;18.70;100.00;97266.53;5013807;28;20020;-78
2023/04/23 00:06:43;;;;;;;;;;;;;;;18.73;100.00;97273.97;5005163;28;19973;-83
2023/04/23 00:09:13;;;;;;;;;;;;;;;18.70;100.00;97277.34;5000166;28;20773;-81
2023/04/23 00:11:39;;;;;;;;;;;;;;;18.65;100.00;97274.84;5006622;28;19926;-84
2023/04/23 00:14:06;;;;;;;;;;;;;;;18.64;100.00;97262.44;5018179;28;19925;-80
2023/04/23 00:16:33;;;;;;;;;;;;;;;18.64;100.00;97265.16;5012879;28;19929;-80
2023/04/23 00:18:59;;;;;;;;;;;;;;;18.63;100.00;97256.25;5010107;28;19926;-82
2023/04/23 00:21:26;;;;;;;;;;;;;;;18.62;100.00;97248.47;5008932;28;19983;-80
2023/04/23 00:23:52;;;;;;;;;;;;;;;18.56;100.00;97247.09;5008990;28;19987;-83
2023/04/23 00:26:20;;;;;;;;;;;;;;;18.54;100.00;97252.00;5022067;28;19931;-81
2023/04/23 00:28:46;;;;;;;;;;;;;;;18.50;100.00;97232.97;5012822;28;19968;-81
2023/04/23 00:31:13;;;;;;;;;;;;;;;18.56;100.00;97247.09;5015881;28;19968;-83
2023/04/23 00:33:39;;;;;;;;;;;;;;;18.54;100.00;97243.91;5011724;28;19933;-81
2023/04/23 00:36:06;;;;;;;;;;;;;;;18.49;100.00;97247.63;5017286;28;19933;-80
2023/04/23 00:38:32;;;;;;;;;;;;;;;18.51;100.00;97255.38;5016286;28;20383;-80
2023/04/23 00:40:59;;;;;;;;;;;;;;;18.53;100.00;97243.13;5018895;28;19927;-79
2023/04/23 00:43:26;;;;;;;;;;;;;;;18.51;100.00;97249.97;5025033;28;19936;-80
2023/04/23 00:45:53;;;;;;;;;;;;;;;18.48;100.00;97245.19;5014321;28;20392;-80
2023/04/23 00:48:20;;;;;;;;;;;;;;;18.54;100.00;97233.88;5016983;28;19999;-79
2023/04/23 00:50:46;;;;;;;;;;;;;;;18.55;100.00;97242.78;5017020;28;19991;-79
2023/04/23 00:53:13;;;;;;;;;;;;;;;18.39;100.00;97241.75;5022540;28;19940;-79
2023/04/23 00:55:40;;;;;;;;;;;;;;;18.26;100.00;97239.00;5018385;28;19926;-79
2023/04/23 00:58:06;;;;;;;;;;;;;;;18.34;100.00;97235.44;5023409;28;19933;-79
2023/04/23 01:00:37;;;;;;;;;;;;;;;18.37;100.00;97238.59;5015802;28;20003;-79
2023/04/23 01:03:04;;;;;;;;;;;;;;;18.43;100.00;97237.28;5034488;28;19925;-78
2023/04/23 01:05:30;;;;;;;;;;;;;;;18.37;100.00;97235.91;5020096;28;19926;-78
2023/04/23 01:07:57;;;;;;;;;;;;;;;18.45;100.00;97232.34;5038237;28;20389;-78
2023/04/23 01:10:23;;;;;;;;;;;;;;;18.40;100.00;97238.75;5018936;28;20780;-78
2023/04/23 01:12:50;;;;;;;;;;;;;;;18.18;100.00;97247.97;5032143;28;19935;-78
2023/04/23 01:15:16;;;;;;;;;;;;;;;18.15;100.00;97232.41;5019828;28;19925;-78
2023/04/23 01:17:44;;;;;;;;;;;;;;;18.01;100.00;97241.88;5034850;28;19929;-78
2023/04/23 01:20:11;;;;;;;;;;;;;;;17.98;100.00;97247.94;5017977;28;19925;-78
2023/04/23 01:22:39;;;;;;;;;;;;;;;18.05;100.00;97248.97;5016122;28;20003;-79
2023/04/23 01:25:06;;;;;;;;;;;;;;;18.17;100.00;97246.38;5017377;28;20310;-77
2023/04/23 01:27:34;;;;;;;;;;;;;;;18.16;100.00;97247.50;5012115;28;20027;-78
2023/04/23 01:30:02;;;;;;;;;;;;;;;18.21;100.00;97238.41;5004721;28;19929;-78
2023/04/23 01:32:28;;;;;;;;;;;;;;;18.23;100.00;97239.66;5006963;28;20063;-78
2023/04/23 01:34:56;;;;;;;;;;;;;;;17.98;100.00;97248.69;5008101;28;19933;-79
2023/04/23 01:37:23;;;;;;;;;;;;;;;17.86;100.00;97240.50;5017629;28;19925;-78
2023/04/23 01:39:51;;;;;;;;;;;;;;;17.82;100.00;97247.69;5020042;28;19925;-78
2023/04/23 01:42:17;;;;;;;;;;;;;;;17.94;100.00;97252.41;5016199;28;20047;-78
2023/04/23 01:44:44;;;;;;;;;;;;;;;17.90;100.00;97248.75;5009247;28;20419;-78
2023/04/23 01:47:11;;;;;;;;;;;;;;;17.83;100.00;97245.75;5011812;28;19925;-78
2023/04/23 01:49:37;;;;;;;;;;;;;;;17.91;100.00;97259.25;5014925;28;19925;-78
2023/04/23 01:52:03;;;;;;;;;;;;;;;17.98;100.00;97254.09;5003442;28;19955;-79
2023/04/23 01:54:30;;;;;;;;;;;;;;;18.02;100.00;97255.03;5018124;28;20328;-79
2023/04/23 01:56:58;;;;;;;;;;;;;;;17.98;100.00;97251.41;5018541;28;19925;-78
2023/04/23 01:59:24;;;;;;;;;;;;;;;17.96;100.00;97250.16;5020472;28;19935;-78
2023/04/23 02:01:51;;;;;;;;;;;;;;;18.02;100.00;97249.63;5015877;28;20474;-78
2023/04/23 02:04:17;;;;;;;;;;;;;;;18.02;100.00;97252.34;5020779;28;20225;-78
2023/04/23 02:06:46;;;;;;;;;;;;;;;17.86;100.00;97251.31;5018508;28;20024;-78
2023/04/23 02:09:12;;;;;;;;;;;;;;;17.92;100.00;97257.34;5018032;28;20258;-78
2023/04/23 02:11:38;;;;;;;;;;;;;;;17.89;100.00;97256.06;5020830;28;19952;-78
2023/04/23 02:14:07;;;;;;;;;;;;;;;18.00;100.00;97264.59;5026065;28;20323;-77
2023/04/23 02:16:33;;;;;;;;;;;;;;;17.96;100.00;97260.94;5023252;28;20366;-78
2023/04/23 02:19:00;;;;;;;;;;;;;;;18.02;100.00;97263.16;5021980;28;19929;-78
2023/04/23 02:21:28;;;;;;;;;;;;;;;17.98;100.00;97256.81;5020845;28;19999;-78
2023/04/23 02:23:55;;;;;;;;;;;;;;;17.95;100.00;97262.09;5016968;28;19928;-79
2023/04/23 02:26:23;;;;;;;;;;;;;;;17.97;100.00;97262.56;5020233;28;19933;-78
2023/04/23 02:28:50;;;;;;;;;;;;;;;17.98;100.00;97264.91;5014096;28;19972;-77
2023/04/23 02:31:19;;;;;;;;;;;;;;;18.00;100.00;97265.41;5016686;28;19967;-75
2023/04/23 02:33:45;;;;;;;;;;;;;;;18.01;100.00;97274.28;5019654;28;19925;-77
2023/04/23 02:36:12;;;;;;;;;;;;;;;17.99;100.00;97266.50;5007125;28;19933;-77
2023/04/23 02:38:40;;;;;;;;;;;;;;;17.95;100.00;97273.66;5015024;28;20491;-77
2023/04/23 02:41:06;;;;;;;;;;;;;;;17.93;100.00;97275.91;5006788;28;19936;-78
2023/04/23 02:43:33;;;;;;;;;;;;;;;17.91;100.00;97275.47;5019305;28;19952;-77
2023/04/23 02:45:59;;;;;;;;;;;;;;;17.81;100.00;97275.81;5021642;28;19925;-78
2023/04/23 02:48:28;;;;;;;;;;;;;;;17.59;100.00;97274.16;5018317;28;20044;-77
2023/04/23 02:50:55;;;;;;;;;;;;;;;17.68;100.00;97272.22;5001246;28;19979;-76
2023/04/23 02:53:21;;;;;;;;;;;;;;;17.53;100.00;97274.63;5019581;28;19929;-77
2023/04/23 02:55:47;;;;;;;;;;;;;;;17.44;100.00;97263.84;5015301;28;20019;-77
2023/04/23 02:58:14;;;;;;;;;;;;;;;17.55;100.00;97272.41;5010660;28;19947;-78
2023/04/23 03:00:40;;;;;;;;;;;;;;;17.30;100.00;97274.03;4998812;28;19952;-78
2023/04/23 03:03:06;;;;;;;;;;;;;;;17.42;100.00;97273.41;5005146;28;19929;-78
2023/04/23 03:05:34;;;;;;;;;;;;;;;17.44;100.00;97276.56;4997350;28;19931;-78
2023/04/23 03:08:00;;;;;;;;;;;;;;;17.32;100.00;97274.53;5017940;28;20382;-78
2023/04/23 03:10:27;;;;;;;;;;;;;;;17.13;100.00;97277.59;5011120;28;19936;-78
2023/04/23 03:12:53;;;;;;;;;;;;;;;16.73;100.00;97277.00;5010763;28;20084;-78
2023/04/23 03:15:19;;;;;;;;;;;;;;;16.81;100.00;97279.97;5001272;28;19929;-78
2023/04/23 03:17:46;;;;;;;;;;;;;;;16.92;100.00;97275.88;5001100;28;19929;-78
2023/04/23 03:20:13;;;;;;;;;;;;;;;16.94;100.00;97274.44;5005285;28;19925;-77
2023/04/23 03:22:41;;;;;;;;;;;;;;;17.06;100.00;97271.88;5002479;28;20607;-78
2023/04/23 03:25:08;;;;;;;;;;;;;;;17.26;100.00;97273.91;5009359;28;20419;-78
2023/04/23 03:27:34;;;;;;;;;;;;;;;17.21;100.00;97270.56;5008162;28;20027;-78
2023/04/23 03:30:00;;;;;;;;;;;;;;;17.21;100.00;97275.97;5019085;28;20020;-77
2023/04/23 03:32:27;;;;;;;;;;;;;;;17.22;100.00;97269.47;5003912;28;19925;-78
2023/04/23 03:34:53;;;;;;;;;;;;;;;17.35;100.00;97276.59;5002476;28;20696;-77
2023/04/23 03:37:19;;;;;;;;;;;;;;;17.44;100.00;97276.56;5008908;28;19941;-78
2023/04/23 03:39:47;;;;;;;;;;;;;;;17.53;100.00;97274.63;5002259;28;19925;-77
2023/04/23 03:42:13;;;;;;;;;;;;;;;17.59;100.00;97284.16;5016142;28;19925;-78
2023/04/23 03:44:40;;;;;;;;;;;;;;;17.62;100.00;97286.22;5020523;28;20004;-78
2023/04/23 03:47:06;;;;;;;;;;;;;;;17.66;100.00;97284.44;5022177;28;20031;-77
2023/04/23 03:49:32;;;;;;;;;;;;;;;17.58;100.00;97282.56;5014450;28;20094;-77
2023/04/23 03:51:59;;;;;;;;;;;;;;;17.35;100.00;97281.19;5005987;28;20028;-78
2023/04/23 03:54:27;;;;;;;;;;;;;;;16.86;100.00;97280.63;5012751;28;19926;-77
2023/04/23 03:56:56;;;;;;;;;;;;;;;16.53;100.00;97279.47;5015798;28;19954;-78
2023/04/23 03:59:22;;;;;;;;;;;;;;;16.72;100.00;97282.69;5015617;28;19944;-78
2023/04/23 04:01:49;;;;;;;;;;;;;;;16.72;100.00;97288.06;5015920;28;19925;-78
2023/04/23 04:04:15;;;;;;;;;;;;;;;16.64;100.00;97288.88;5016947;28;19948;-77
2023/04/23 04:06:41;;;;;;;;;;;;;;;16.28;100.00;97293.72;5022097;28;20416;-78
2023/04/23 04:09:08;;;;;;;;;;;;;;;16.47;100.00;97295.00;5013071;28;19933;-77
2023/04/23 04:11:34;;;;;;;;;;;;;;;16.55;100.00;97283.50;5013299;28;19947;-77
2023/04/23 04:14:02;;;;;;;;;;;;;;;16.78;100.00;97297.59;5017109;28;19935;-78
2023/04/23 04:16:28;;;;;;;;;;;;;;;17.00;100.00;97293.94;5013348;28;19936;-78
2023/04/23 04:18:54;;;;;;;;;;;;;;;17.10;100.00;97283.63;5024061;28;19949;-78
2023/04/23 04:21:21;;;;;;;;;;;;;;;16.88;100.00;97281.09;5012037;28;19940;-77
2023/04/23 04:23:47;;;;;;;;;;;;;;;17.03;100.00;97286.00;5014367;28;20021;-77
2023/04/23 04:26:14;;;;;;;;;;;;;;;17.05;100.00;97288.41;5013343;28;20578;-77
2023/04/23 04:28:40;;;;;;;;;;;;;;;17.17;100.00;97296.63;5011859;28;19934;-78
2023/04/23 04:31:09;;;;;;;;;;;;;;;17.18;100.00;97301.69;5009570;28;19925;-78
2023/04/23 04:33:38;;;;;;;;;;;;;;;17.22;100.00;97307.25;5001190;28;19926;-78
2023/04/23 04:36:05;;;;;;;;;;;;;;;17.22;100.00;97309.94;4995553;28;19935;-78
2023/04/23 04:38:31;;;;;;;;;;;;;;;17.30;100.00;97308.34;5006580;28;19929;-78
2023/04/23 04:40:58;;;;;;;;;;;;;;;17.36;100.00;97307.06;5017100;28;19932;-77
2023/04/23 04:43:25;;;;;;;;;;;;;;;17.32;100.00;97301.50;5019287;28;20460;-77
2023/04/23 04:45:52;;;;;;;;;;;;;;;17.05;100.00;97318.06;5003646;28;20001;-78
2023/04/23 04:48:20;;;;;;;;;;;;;;;16.66;100.00;97305.53;5008040;28;19925;-78
2023/04/23 04:50:46;;;;;;;;;;;;;;;16.32;100.00;97300.06;5000816;28;19948;-76
2023/04/23 04:53:12;;;;;;;;;;;;;;;16.03;100.00;97306.03;5011620;28;19929;-77
2023/04/23 04:55:39;;;;;;;;;;;;;;;15.95;100.00;97299.50;5017118;28;20641;-76
2023/04/23 04:58:06;;;;;;;;;;;;;;;16.17;100.00;97315.56;5001878;28;19925;-77
2023/04/23 05:00:32;;;;;;;;;;;;;;;16.47;100.00;97318.47;5011425;28;20261;-77
2023/04/23 05:02:59;;;;;;;;;;;;;;;16.68;100.00;97319.50;5006486;28;20663;-77
2023/04/23 05:05:26;;;;;;;;;;;;;;;16.74;100.00;97329.03;4949634;28;1756433;-78
2023/04/23 05:07:54;;;;;;;;;;;;;;;16.86;100.00;97317.59;5018837;28;19925;-77
2023/04/23 05:10:20;;;;;;;;;;;;;;;16.92;100.00;97325.22;5015052;28;19929;-77
2023/04/23 05:12:47;;;;;;;;;;;;;;;16.99;100.00;97330.91;5016392;28;20009;-77
2023/04/23 05:15:13;;;;;;;;;;;;;;;16.87;100.00;97333.44;5018733;28;19929;-77
2023/04/23 05:17:40;;;;;;;;;;;;;;;16.92;100.00;97332.50;5024569;28;19975;-77
2023/04/23 05:20:09;;;;;;;;;;;;;;;16.96;100.00;97328.84;5020931;28;19940;-78
2023/04/23 05:22:37;;;;;;;;;;;;;;;16.96;100.00;97338.84;5003958;28;19926;-78
2023/04/23 05:25:03;;;;;;;;;;;;;;;17.07;100.00;97334.72;5010204;28;19926;-77
2023/04/23 05:27:30;;;;;;;;;;;;;;;17.15;100.00;97342.78;5007167;28;19936;-77
2023/04/23 05:29:56;;;;;;;;;;;;;;;17.22;100.00;97345.03;5020504;28;20329;-78
2023/04/23 05:32:22;;;;;;;;;;;;;;;17.26;100.00;97346.78;5013113;28;19936;-78
2023/04/23 05:34:49;;;;;;;;;;;;;;;17.31;100.00;97351.19;5006277;28;19991;-78
2023/04/23 05:37:15;;;;;;;;;;;;;;;17.31;100.00;97353.91;5016761;28;20016;-77
2023/04/23 05:39:43;;;;;;;;;;;;;;;17.31;100.00;97350.41;5014433;28;19925;-77
2023/04/23 05:42:09;;;;;;;;;;;;;;;17.21;100.00;97357.72;5008650;28;19937;-78
2023/04/23 05:44:35;;;;;;;;;;;;;;;17.02;100.00;97361.88;5001707;28;19926;-77
2023/04/23 05:47:02;;;;;;;;;;;;;;;17.05;100.00;97372.78;5012576;28;19931;-77
2023/04/23 05:49:28;;;;;;;;;;;;;;;17.06;100.00;97357.41;5013776;28;19955;-77
2023/04/23 05:51:54;;;;;;;;;;;;;;;16.81;100.00;97353.59;5014949;28;20492;-76
2023/04/23 05:54:21;;;;;;;;;;;;;;;16.81;100.00;97367.06;5011487;28;19940;-78
2023/04/23 05:56:48;;;;;;;;;;;;;;;16.75;100.00;97368.34;5004780;28;19925;-77
2023/04/23 05:59:15;;;;;;;;;;;;;;;16.81;100.00;97375.16;5008985;28;20016;-77
2023/04/23 06:01:41;;;;;;;;;;;;;;;16.85;100.00;97384.22;5001605;28;20480;-77
2023/04/23 06:04:08;;;;;;;;;;;;;;;16.85;100.00;97378.81;4991901;28;19929;-77
2023/04/23 06:06:34;;;;;;;;;;;;;;;16.93;100.00;97380.72;5007810;28;19975;-77
2023/04/23 06:09:01;;;;;;;;;;;;;;;16.78;100.00;97385.78;5006055;28;19929;-78
2023/04/23 06:11:27;;;;;;;;;;;;;;;16.82;100.00;97382.16;5013618;28;19930;-77
2023/04/23 06:13:55;;;;;;;;;;;;;;;16.95;100.00;97383.91;5015508;28;20446;-78
2023/04/23 06:16:22;;;;;;;;;;;;;;;17.01;100.00;97388.03;4998177;28;20007;-78
2023/04/23 06:18:49;;;;;;;;;;;;;;;16.76;100.00;97386.09;5000790;28;20037;-78
2023/04/23 06:21:15;;;;;;;;;;;;;;;16.96;100.00;97382.78;5008096;28;20004;-78
2023/04/23 06:23:42;;;;;;;;;;;;;;;16.77;100.00;97393.09;5014874;28;19929;-78
2023/04/23 06:26:08;;;;;;;;;;;;;;;16.67;100.00;97393.38;5009661;28;19929;-77
2023/04/23 06:28:34;;;;;;;;;;;;;;;16.67;100.00;97394.19;5018787;28;19932;-77
2023/04/23 06:31:02;;;;;;;;;;;;;;;16.83;100.00;97381.06;5003787;28;19989;-78
2023/04/23 06:33:29;;;;;;;;;;;;;;;16.90;100.00;97381.34;5016838;28;20016;-78
2023/04/23 06:35:55;;;;;;;;;;;;;;;16.93;100.00;97379.94;5015174;28;19956;-78
2023/04/23 06:38:21;;;;;;;;;;;;;;;16.83;100.00;97372.97;5016162;28;19929;-77
2023/04/23 06:40:48;;;;;;;;;;;;;;;16.92;100.00;97379.16;5019414;28;20425;-78
2023/04/23 06:43:14;;;;;;;;;;;;;;;17.01;100.00;97379.94;5019879;28;19931;-77
2023/04/23 06:45:41;;;;;;;;;;;;;;;16.94;100.00;97386.91;5019362;28;19972;-77
2023/04/23 06:48:08;;;;;;;;;;;;;;;16.84;100.00;97385.31;5016173;28;20021;-78
2023/04/23 06:50:35;;;;;;;;;;;;;;;16.76;100.00;97383.41;5020049;28;20012;-78
2023/04/23 06:53:01;;;;;;;;;;;;;;;16.96;100.00;97376.63;5020446;28;19935;-77
2023/04/23 06:55:27;;;;;;;;;;;;;;;16.92;100.00;97381.06;5009047;28;19929;-78
2023/04/23 06:57:54;;;;;;;;;;;;;;;16.94;100.00;97376.94;5021046;28;19929;-78
2023/04/23 07:00:21;;;;;;;;;;;;;;;16.97;100.00;97381.69;5018386;28;19936;-77
2023/04/23 07:02:48;;;;;;;;;;;;;;;16.99;100.00;97389.47;5019111;28;19972;-78
2023/04/23 07:05:16;;;;;;;;;;;;;;;17.02;100.00;97388.84;5014711;28;19973;-78
2023/04/23 07:07:42;;;;;;;;;;;;;;;17.03;100.00;97377.72;5000686;28;19925;-78
2023/04/23 07:10:10;;;;;;;;;;;;;;;16.65;100.00;97388.28;5018527;28;20066;-77
2023/04/23 07:12:36;;;;;;;;;;;;;;;16.63;100.00;97371.66;5014126;28;19929;-78
2023/04/23 07:15:03;;;;;;;;;;;;;;;16.82;100.00;97382.16;5011501;28;19936;-78
2023/04/23 07:17:30;;;;;;;;;;;;;;;16.87;100.00;97387.38;5014842;28;19929;-77
2023/04/23 07:19:56;;;;;;;;;;;;;;;16.83;100.00;97378.34;5006905;28;19925;-77
2023/04/23 07:22:25;;;;;;;;;;;;;;;16.82;100.00;97376.75;5010140;28;19933;-77
2023/04/23 07:24:52;;;;;;;;;;;;;;;16.66;100.00;97384.50;5005018;28;19940;-77
2023/04/23 07:27:18;;;;;;;;;;;;;;;16.57;100.00;97375.59;5026311;28;19983;-77
2023/04/23 07:29:45;;;;;;;;;;;;;;;16.32;100.00;97380.91;5008991;28;19929;-77
2023/04/23 07:32:11;;;;;;;;;;;;;;;16.42;100.00;97383.31;4998516;28;19991;-77
2023/04/23 07:34:38;;;;;;;;;;;;;;;16.53;100.00;97398.06;4996381;28;19951;-77
2023/04/23 07:37:05;;;;;;;;;;;;;;;16.71;100.00;97397.81;5010074;28;19940;-77
2023/04/23 07:39:32;;;;;;;;;;;;;;;16.68;100.00;97408.47;5020427;28;19960;-77
2023/04/23 07:41:59;;;;;;;;;;;;;;;16.80;100.00;97405.16;5013119;28;20027;-77
2023/04/23 07:44:25;;;;;;;;;;;;;;;16.79;100.00;97403.56;5002773;28;20152;-77
2023/04/23 07:46:52;;;;;;;;;;;;;;;16.71;100.00;97408.59;4994738;28;19932;-76
2023/04/23 07:49:18;;;;;;;;;;;;;;;16.64;100.00;97412.88;5003912;28;20397;-77
2023/04/23 07:51:44;;;;;;;;;;;;;;;16.45;100.00;97415.03;5014259;28;20251;-78
2023/04/23 07:54:11;;;;;;;;;;;;;;;16.81;100.00;97410.22;5005071;28;20032;-78
2023/04/23 07:56:38;;;;;;;;;;;;;;;16.56;100.00;97409.06;5015807;28;20065;-77
2023/04/23 07:59:05;;;;;;;;;;;;;;;16.42;100.00;97399.47;5017986;28;20159;-78
2023/04/23 08:01:32;;;;;;;;;;;;;;;16.44;100.00;97405.34;5014457;28;19926;-78
2023/04/23 08:03:59;;;;;;;;;;;;;;;16.73;100.00;97405.63;5011227;28;20019;-77
2023/04/23 08:06:25;;;;;;;;;;;;;;;16.87;100.00;97398.16;5006840;28;19937;-77
2023/04/23 08:08:52;;;;;;;;;;;;;;;16.68;100.00;97398.44;5020333;28;19928;-77
2023/04/23 08:11:19;;;;;;;;;;;;;;;16.81;100.00;97399.44;5008412;28;19933;-78
2023/04/23 08:13:46;;;;;;;;;;;;;;;16.90;100.00;97394.84;5018094;28;19948;-78
2023/04/23 08:16:13;;;;;;;;;;;;;;;16.94;100.00;97395.81;5010319;28;19926;-77
2023/04/23 08:18:39;;;;;;;;;;;;;;;16.83;100.00;97397.22;5012185;28;20526;-78
2023/04/23 08:21:06;;;;;;;;;;;;;;;16.92;100.00;97389.94;5010757;28;20597;-77
2023/04/23 08:23:32;;;;;;;;;;;;;;;17.01;100.00;97392.63;5012383;28;19925;-77
2023/04/23 08:25:58;;;;;;;;;;;;;;;17.03;100.00;97391.22;5014610;28;20003;-77
2023/04/23 08:28:26;;;;;;;;;;;;;;;17.06;100.00;97393.28;5015913;28;20396;-77
2023/04/23 08:30:54;;;;;;;;;;;;;;;17.10;100.00;97388.84;5015983;28;20028;-77
2023/04/23 08:33:20;;;;;;;;;;;;;;;17.13;100.00;97388.19;5009076;28;20024;-76
2023/04/23 08:35:47;;;;;;;;;;;;;;;17.11;100.00;97387.72;5019102;28;19930;-77
2023/04/23 08:38:13;;;;;;;;;;;;;;;17.09;100.00;97381.84;5014767;28;19929;-78
2023/04/23 08:40:41;;;;;;;;;;;;;;;16.89;100.00;97384.38;5021676;28;20111;-77
2023/04/23 08:43:11;;;;;;;;;;;;;;;16.71;100.00;97394.38;5020822;28;19925;-77
2023/04/23 08:45:40;;;;;;;;;;;;;;;16.91;100.00;97387.53;5018364;28;19976;-77
2023/04/23 08:48:09;;;;;;;;;;;;;;;16.89;100.00;97392.47;5022618;28;19987;-77
2023/04/23 08:50:36;;;;;;;;;;;;;;;16.69;100.00;97399.25;5015046;28;19925;-78
2023/04/23 08:53:05;;;;;;;;;;;;;;;16.69;100.00;97402.75;5019556;28;19969;-76
2023/04/23 08:55:33;;;;;;;;;;;;;;;16.72;100.00;97395.94;5013099;28;20020;-76
2023/04/23 08:58:01;;;;;;;;;;;;;;;16.79;100.00;97401.66;5009513;28;19976;-77
2023/04/23 09:00:28;;;;;;;;;;;;;;;16.38;100.00;97395.81;5006954;28;19934;-76
2023/04/23 09:02:54;;;;;;;;;;;;;;;16.83;100.00;97404.53;5013179;28;19925;-76
2023/04/23 09:05:22;;;;;;;;;;;;;;;16.79;100.00;97396.25;5018969;28;20764;-77
2023/04/23 09:07:48;;;;;;;;;;;;;;;16.84;100.00;97393.41;5015748;28;20040;-76
2023/04/23 09:10:15;;;;;;;;;;;;;;;16.94;100.00;97381.53;4997352;28;19925;-76
2023/04/23 09:12:42;;;;;;;;;;;;;;;17.00;100.00;97396.44;5000281;28;19936;-79
2023/04/23 09:15:10;;;;;;;;;;;;;;;16.95;100.00;97386.63;5004679;28;19931;-77
2023/04/23 09:17:37;;;;;;;;;;;;;;;16.65;100.00;97387.50;5016071;28;19925;-76
2023/04/23 09:20:05;;;;;;;;;;;;;;;16.47;100.00;97380.47;5010705;28;19932;-77
2023/04/23 09:22:39;;;;;;;;;;;;;;;16.36;100.00;97379.97;5010435;28;20037;-77
2023/04/23 09:25:06;;;;;;;;;;;;;;;16.16;100.00;97377.81;5013038;28;19984;-77
2023/04/23 09:27:33;;;;;;;;;;;;;;;15.79;100.00;97372.91;5026338;28;20040;-77
2023/04/23 09:30:03;;;;;;;;;;;;;;;15.69;100.00;97371.28;5029099;28;19930;-76
2023/04/23 09:32:31;;;;;;;;;;;;;;;15.41;100.00;97367.91;5007660;28;19929;-78
2023/04/23 09:34:57;;;;;;;;;;;;;;;15.70;100.00;97366.69;5013103;28;20407;-77
2023/04/23 09:37:25;;;;;;;;;;;;;;;15.94;100.00;97367.91;5012453;28;19928;-75
2023/04/23 09:39:55;;;;;;;;;;;;;;;15.94;100.00;97365.22;5023360;28;20023;-77
2023/04/23 09:42:23;;;;;;;;;;;;;;;16.07;100.00;97366.22;5018164;28;19935;-77
2023/04/23 09:44:55;;;;;;;;;;;;;;;16.04;100.00;97359.56;5018016;28;19929;-77
2023/04/23 09:47:22;;;;;;;;;;;;;;;15.86;100.00;97367.88;5013596;28;19937;-77
2023/04/23 09:49:48;;;;;;;;;;;;;;;15.85;100.00;97359.00;5017431;28;20107;-77
2023/04/23 09:52:15;;;;;;;;;;;;;;;15.85;100.00;97359.00;5015732;28;19929;-77
2023/04/23 09:54:42;;;;;;;;;;;;;;;16.21;100.00;97358.84;5021578;28;19929;-77
2023/04/23 09:57:11;;;;;;;;;;;;;;;16.24;100.00;97365.50;5022116;28;19925;-76
2023/04/23 09:59:37;;;;;;;;;;;;;;;15.85;100.00;97371.66;5002704;28;19929;-77
2023/04/23 10:02:05;;;;;;;;;;;;;;;15.82;100.00;97372.28;5010021;28;20071;-77
2023/04/23 10:04:32;;;;;;;;;;;;;;;15.74;100.00;97354.19;5012715;28;20801;-77
2023/04/23 10:06:59;;;;;;;;;;;;;;;16.06;100.00;97357.34;5020444;28;19925;-76
2023/04/23 10:09:27;;;;;;;;;;;;;;;16.29;100.00;97366.16;5010445;28;19938;-77
2023/04/23 10:11:54;;;;;;;;;;;;;;;16.42;100.00;97369.84;5013301;28;20368;-77
2023/04/23 10:14:22;;;;;;;;;;;;;;;16.48;100.00;97360.50;5012232;28;19932;-78
2023/04/23 10:16:50;;;;;;;;;;;;;;;16.60;100.00;97366.09;5015963;28;20443;-77
2023/04/23 10:19:17;;;;;;;;;;;;;;;16.72;100.00;97372.47;5012084;28;20488;-76
2023/04/23 10:21:46;;;;;;;;;;;;;;;16.84;100.00;97360.25;5004732;28;19926;-77
2023/04/23 10:24:13;;;;;;;;;;;;;;;16.62;100.00;97370.06;5018191;28;20344;-77
2023/04/23 10:26:42;;;;;;;;;;;;;;;16.57;100.00;97362.13;4999597;28;20331;-77
2023/04/23 10:29:09;;;;;;;;;;;;;;;16.77;100.00;97355.34;5003223;28;19991;-76
2023/04/23 10:31:37;;;;;;;;;;;;;;;16.85;100.00;97351.06;5001247;28;19940;-75
2023/04/23 10:34:05;;;;;;;;;;;;;;;16.77;100.00;97349.97;5010280;28;19932;-76
2023/04/23 10:36:32;;;;;;;;;;;;;;;16.68;100.00;97344.53;5014754;28;20308;-77
2023/04/23 10:39:03;;;;;;;;;;;;;;;16.72;100.00;97339.31;5010251;28;19936;-77
2023/04/23 10:41:34;;;;;;;;;;;;;;;16.83;100.00;97337.91;5003643;28;20020;-76
2023/04/23 10:44:00;;;;;;;;;;;;;;;16.88;100.00;97343.13;4996470;28;19961;-76
2023/04/23 10:46:30;;;;;;;;;;;;;;;16.79;100.00;97339.63;5006248;28;19929;-75
2023/04/23 10:49:07;;;;;;;;;;;;;;;16.94;100.00;97338.38;5008833;28;20391;-77
2023/04/23 10:51:34;;;;;;;;;;;;;;;16.82;100.00;97341.69;5009770;28;19929;-76
2023/04/23 10:54:02;;;;;;;;;;;;;;;16.88;100.00;97343.13;5008049;28;19937;-77
2023/04/23 10:56:28;;;;;;;;;;;;;;;16.83;100.00;97337.91;5014810;28;19948;-76
2023/04/23 10:58:54;;;;;;;;;;;;;;;16.55;100.00;97342.00;5007540;28;20356;-76
2023/04/23 11:01:24;;;;;;;;;;;;;;;16.60;100.00;97341.84;5010867;28;20491;-76
2023/04/23 11:03:51;;;;;;;;;;;;;;;16.57;100.00;97351.34;5014825;28;19925;-77
2023/04/23 11:06:42;;;;;;;;;;;;;;;16.63;100.00;97335.81;5013509;28;20377;-77
2023/04/23 11:09:23;;;;;;;;;;;;;;;16.86;100.00;97334.56;5010435;28;19936;-76
2023/04/23 11:11:49;;;;;;;;;;;;;;;16.73;100.00;97338.22;5014056;28;19931;-77
2023/04/23 11:14:16;;;;;;;;;;;;;;;16.76;100.00;97334.88;5014419;28;20032;-76
2023/04/23 11:16:42;;;;;;;;;;;;;;;16.55;100.00;97325.81;5016957;28;19934;-76
2023/04/23 11:19:11;;;;;;;;;;;;;;;16.72;100.00;97328.53;5009330;28;19956;-76
2023/04/23 11:21:57;;;;;;;;;;;;;;;16.74;100.00;97345.19;5012462;28;19925;-77
2023/04/23 11:24:23;;;;;;;;;;;;;;;16.81;100.00;97333.91;5011614;28;19933;-77
2023/04/23 11:26:51;;;;;;;;;;;;;;;16.73;100.00;97325.53;5015143;28;20210;-78
2023/04/23 11:29:18;;;;;;;;;;;;;;;16.60;100.00;97326.44;5015575;28;20013;-77
2023/04/23 11:31:44;;;;;;;;;;;;;;;16.85;100.00;97327.59;5011833;28;19929;-77
2023/04/23 11:34:11;;;;;;;;;;;;;;;16.81;100.00;97317.72;5008559;28;20040;-78
2023/04/23 11:36:38;;;;;;;;;;;;;;;16.83;100.00;97318.22;5019614;28;20307;-78
2023/04/23 11:39:06;;;;;;;;;;;;;;;16.64;100.00;97315.84;5009637;28;20000;-77
2023/04/23 11:41:34;;;;;;;;;;;;;;;17.05;100.00;97318.84;5012048;28;19960;-76
2023/04/23 11:44:00;;;;;;;;;;;;;;;17.04;100.00;97311.88;5006987;28;19964;-77
2023/04/23 11:46:26;;;;;;;;;;;;;;;17.04;100.00;97311.88;5003419;28;19959;-76
2023/04/23 11:48:53;;;;;;;;;;;;;;;16.55;100.00;97304.25;5010125;28;20012;-76
2023/04/23 11:51:23;;;;;;;;;;;;;;;16.80;100.00;97295.38;5006019;28;19936;-77
2023/04/23 11:53:49;;;;;;;;;;;;;;;16.71;100.00;97297.28;4992491;28;19931;-76
2023/04/23 11:56:17;;;;;;;;;;;;;;;16.51;100.00;97282.50;5001646;28;19926;-77
2023/04/23 11:58:45;;;;;;;;;;;;;;;16.38;100.00;97288.03;5005895;28;20628;-76
2023/04/23 12:01:12;;;;;;;;;;;;;;;16.57;100.00;97272.38;5011540;28;19948;-76
2023/04/23 12:03:38;;;;;;;;;;;;;;;16.42;100.00;97270.13;4989781;28;20407;-76
2023/04/23 12:06:05;;;;;;;;;;;;;;;16.40;100.00;97264.25;5006290;28;20687;-76
2023/04/23 12:08:33;;;;;;;;;;;;;;;16.58;100.00;97255.09;5006358;28;19929;-75
2023/04/23 12:11:00;;;;;;;;;;;;;;;16.59;100.00;97253.97;5008842;28;20092;-75
2023/04/23 12:13:30;;;;;;;;;;;;;;;16.51;100.00;97235.88;5016456;28;19932;-74
2023/04/23 12:15:58;;;;;;;;;;;;;;;16.27;100.00;97238.25;5004361;28;19930;-76
2023/04/23 12:18:27;;;;;;;;;;;;;;;16.29;100.00;97241.41;5022803;28;19940;-75
2023/04/23 12:20:53;;;;;;;;;;;;;;;16.66;100.00;97257.78;5025912;28;19965;-75
2023/04/23 12:23:25;;;;;;;;;;;;;;;16.70;100.00;97268.75;5022400;28;19976;-74
2023/04/23 12:25:53;;;;;;;;;;;;;;;16.91;100.00;97255.38;5024922;28;20223;-74
2023/04/23 12:28:22;;;;;;;;;;;;;;;16.89;100.00;97247.63;5022551;28;19925;-75
2023/04/23 12:30:50;;;;;;;;;;;;;;;16.97;100.00;97241.44;5021156;28;19933;-75
2023/04/23 12:33:17;;;;;;;;;;;;;;;17.08;100.00;97241.91;5019567;28;20515;-74
2023/04/23 12:35:44;;;;;;;;;;;;;;;17.22;100.00;97232.47;5021354;28;19929;-75